Highlands Peak, California Weather observations

Data are for observation ending at time listed.
 Day   Time    Ave.   Ave.  Ave.  Vector   Max.   Stn.    Total    Solar   Ave.  
  of    of     Air    Rel.  Wind   Wind    Wind   Baro.  Precip.   Rad.    Soil  
Year   Day     Temp.  Hum.  Speed  Dir.    Gust   Pres.                    Temp. 
2016   (PST)    F      %     mph   deg.    mph     mb.     in.     W/m2     F   
------------------------------------------------------------------------------
 206    8:50   83.1    19   10.2   121     16.3   927.7    0.00     577    83.2
 206    9:00   83.2    19   10.4   122     15.0   927.7    0.00     577    83.3
 206    9:10   83.3    20    9.4   126     16.1   927.8    0.00     631    83.5
 206    9:20   83.2    19    9.6   137     14.6   927.8    0.00     675    83.7
 206    9:30   83.4    20    8.1   144     13.0   928.0    0.00     720    83.9
 206    9:40   83.5    20    8.2   136     11.8   928.0    0.00     728    84.1
 206    9:50   83.8    18    7.6   145     11.5   928.1    0.00     798    84.3
 206   10:00   84.0    18    8.7   143     12.9   928.2    0.00     832    84.5
 206   10:10   84.3    18    7.5   146     12.3   928.2    0.00     854    84.8
 206   10:20   84.2    19    8.0   148     12.1   928.3    0.00     865    85.1
 206   10:30   84.4    19    7.2   148     11.3   928.3    0.00     901    85.4
 206   10:40   84.6    18    6.8   169     11.8   928.4    0.00     942    85.7
 206   10:50   84.5    19    6.4   168     11.7   928.5    0.00     974    86.0
 206   11:00   84.5    18    6.6   161     10.2   928.5    0.00    1000    86.3
 206   11:10   84.3    18    6.5   167     12.4   928.5    0.00    1013    86.5
 206   11:20   83.0    20    7.2   173     10.5   928.5    0.00    1019    86.9
 206   11:30   83.1    21    6.6   169     11.9   928.5    0.00    1007    87.2
 206   11:40   80.9    24    8.2   159     12.5   928.6    0.00    1013    87.4
 206   11:50   80.6    25    7.2   163     12.3   928.6    0.00    1031    87.7
 206   12:00   79.9    25    8.4   159     13.7   928.6    0.00    1022    87.9
 206   12:10   81.0    25    5.5   165     12.6   928.6    0.00    1017    88.1
 206   12:20   82.1    24    7.2   184     12.4   928.7    0.00    1024    88.3
 206   12:30   81.8    24    6.0   168     10.3   928.7    0.00    1039    88.5
 206   12:40   82.3    24    7.2   169     13.8   928.7    0.00    1027    88.7
 206   12:50   82.4    23    8.3   160     14.4   928.7    0.00    1028    88.9
 206   13:00   82.5    22    7.5   162     14.1   928.8    0.00    1017    89.1
 206   13:10   83.1    22    7.4   158     13.2   928.8    0.00    1011    89.3
 206   13:20   83.8    21    6.9   144     15.3   928.8    0.00     994    89.5
 206   13:30   83.8    21    9.8   144     17.9   928.9    0.00     978    89.9
 206   13:40   82.5    21   13.0   132     20.4   928.9    0.00     966    90.2
 206   13:50   82.3    22   12.8   129     18.9   928.8    0.00     934    90.6
 206   14:00   82.4    22   11.5   140     18.4   928.9    0.00     938    91.0
 206   14:10   82.6    22    9.9   138     17.4   928.9    0.00     923    91.3
 206   14:20   82.2    20   11.7   141     17.5   928.8    0.00     896    91.7
 206   14:30   81.2    17   16.8   123     25.0   928.8    0.00     877    92.2
 206   14:40   79.1    20   19.1   121     27.3   928.7    0.00     856    92.8
 206   14:50   79.1    21   18.7   114     26.2   928.7    0.00     832    93.2
 206   15:00   78.5    20   20.2   118     28.8   928.6    0.00     811    93.6
 206   15:10   78.4    20   17.5   118     27.5   928.7    0.00     784    93.9
 206   15:20   78.0    21   20.0   121     28.0   928.6    0.00     758    94.2
 206   15:30   77.4    23   17.1   124     25.6   928.7    0.00     731    94.4
 206   15:40   77.0    23   18.4   122     28.2   928.7    0.00     703    94.6
 206   15:50   76.9    23   18.4   124     27.4   928.7    0.00     670    94.7
 206   16:00   76.7    24   17.9   121     26.3   928.7    0.00     640    94.9
 206   16:10   76.5    24   18.5   118     28.6   928.8    0.00     606    95.1
 206   16:20   76.1    24   17.3   122     27.4   928.8    0.00     570    95.2
 206   16:30   76.4    25   15.3   122     22.1   928.8    0.00     534    95.2
 206   16:40   76.7    25   14.0   125     20.2   928.8    0.00     500    95.2
 206   16:50   76.9    25   13.0   127     20.2   928.7    0.00     465    95.2
 206   17:00   76.4    24   13.2   125     19.6   928.7    0.00     430    95.2
 206   17:10   76.8    24   10.3   127     14.9   928.6    0.00     396    95.1
 206   17:20   76.7    24   10.3   136     14.3   928.6    0.00     360    95.1
 206   17:30   76.7    25    8.8   146     12.6   928.5    0.00     324    95.1
 206   17:40   76.7    25    7.1   144     10.4   928.6    0.00     287    95.1
 206   17:50   76.3    26    7.9   150     10.4   928.6    0.00     254    95.1
 206   18:00   75.7    27    6.3   155      8.0   928.6    0.00     217    95.0
 206   18:10   75.7    28    4.1   138      6.2   928.6    0.00     183    95.0
 206   18:20   76.0    28    2.7   143      4.0   928.6    0.00     151    95.0
 206   18:30   75.5    28    2.0    73      2.8   928.5    0.00     119    94.9
 206   18:40   76.3    27    0.6    19      1.5   928.4    0.00      86    94.7
 206   18:50   76.2    27    1.6     3      1.9   928.4    0.00      59    94.6
 206   19:00   75.9    27    1.9   349      3.2   928.3    0.00      38    94.5
 206   19:10   75.3    27    1.8   318      3.2   928.3    0.00      18    94.3
 206   19:20   75.3    28    1.2   332      1.9   928.3    0.00       8    94.1
 206   19:30   75.2    29    1.3   320      2.0   928.3    0.00       3    93.9
 206   19:40   74.8    28    1.5   303      2.5   928.3    0.00       1    93.8
 206   19:50   74.6    27    1.7    29      3.0   928.3    0.00       0    93.6
 206   20:00   74.8    24    2.9    62      5.0   928.4    0.00       0    93.4
 206   20:10   75.0    23    2.5    66      4.5   928.4    0.00       0    93.3
 206   20:20   76.4    21    1.0    78      2.1   928.5    0.00       0    93.1
 206   20:30   76.9    20    2.1    82      3.4   928.6    0.00       0    92.9
 206   20:40   76.8    19    1.7    71      2.5   928.6    0.00       0    92.7
 206   20:50   76.8    18    3.4    59      5.0   928.7    0.00       0    92.4
 206   21:00   76.9    18    1.4    80      3.0   928.8    0.00       0    92.2
 206   21:10   77.7    17    0.6   339      3.2   928.8    0.00       0    92.0
 206   21:20   77.5    17    1.4    85      2.7   928.8    0.00       0    91.8
 206   21:30   77.6    18    0.5   115      1.3   928.9    0.00       0    91.5
 206   21:40   77.9    17    0.7    49      1.8   928.8    0.00       0    91.3
 206   21:50   77.6    17    0.1   223      1.6   928.9    0.00       0    90.9
 206   22:00   77.4    19    1.2   159      1.8   928.9    0.00       0    90.7
 206   22:10   77.3    19    1.0   141      1.4   928.9    0.00       0    90.5
 206   22:20   77.3    20    1.1   181      1.6   928.9    0.00       0    90.3
 206   22:30   76.9    21    0.3   208      1.4   928.9    0.00       0    90.0
 206   22:40   76.6    20    0.2   108      1.2   928.9    0.00       0    89.8
 206   22:50   76.9    18    1.1   102      1.5   928.9    0.00       0    89.7
 206   23:00   77.2    15    1.8    58      5.5   928.9    0.00       0    89.5
 206   23:10   76.4    15    2.0    56      4.5   928.9    0.00       0    89.3
 206   23:20   76.8    15    1.0    50      2.6   928.9    0.00       0    89.1
 206   23:30   76.7    16    1.5    66      2.9   928.9    0.00       0    88.9
 206   23:40   76.1    17    1.8    78      3.3   928.9    0.00       0    88.6
 206   23:50   76.2    16    0.2    78      1.2   928.9    0.00       0    88.4
 207    0:00   76.9    14    0.1    81      0.9   928.9    0.00       0    88.2
 207    0:10   77.2    14    1.3    44      3.0   928.8    0.00       0    88.0
 207    0:20   76.6    15    3.3    49      4.3   928.8    0.00       0    87.7
 207    0:30   76.5    15    1.0    66      2.6   928.8    0.00       0    87.5
 207    0:40   77.0    13    0.1   348      1.1   928.8    0.00       0    87.2
 207    0:50   76.6    14    2.7    26      4.7   928.8    0.00       0    87.0
 207    1:00   76.9    14    1.3    18      2.6   928.7    0.00       0    86.8
 207    1:10   77.2    13    0.2   345      1.2   928.7    0.00       0    86.6
 207    1:20   77.5    13    1.0   282      2.3   928.6    0.00       0    86.2
 207    1:30   76.9    14    2.3    31      3.8   928.6    0.00       0    86.1
 207    1:40   76.8    14    0.9    42      3.6   928.5    0.00       0    86.0
 207    1:50   77.1    13    1.8   315      5.0   928.5    0.00       0    85.7
 207    2:00   75.5    16    5.0    46      7.0   928.4    0.00       0    85.6
 207    2:10   75.3    17    5.8    10      7.1   928.4    0.00       0    85.6
 207    2:20   75.7    17    4.1    11      5.3   928.5    0.00       0    85.4
 207    2:30   75.7    16    3.7     1      5.3   928.5    0.00       0    85.2
 207    2:40   75.2    16    5.4    32      7.0   928.4    0.00       0    85.0
 207    2:50   74.9    17    6.3    41      9.2   928.4    0.00       0    84.8
 207    3:00   75.5    17    5.5    44      7.2   928.4    0.00       0    84.5
 207    3:10   75.5    17    6.0    40      7.2   928.4    0.00       0    84.3
 207    3:20   75.5    17    5.1    32      6.6   928.4    0.00       0    84.1
 207    3:30   75.3    17    5.5    36      7.1   928.4    0.00       0    84.0
 207    3:40   74.4    18    6.5    29      7.7   928.4    0.00       0    83.9
 207    3:50   74.5    18    4.8    30      6.6   928.4    0.00       0    83.7
 207    4:00   75.9    16    2.8    45      4.5   928.5    0.00       0    83.6
 207    4:10   76.5    16    3.3    45      4.5   928.6    0.00       0    83.4
 207    4:20   75.2    17    5.1    51      7.0   928.6    0.00       0    83.2
 207    4:30   74.2    18    5.2    55      6.5   928.7    0.00       0    83.0
 207    4:40   74.3    18    4.5    56      5.9   928.7    0.00       0    82.9
 207    4:50   74.8    17    4.7    61      6.7   928.8    0.00       0    82.7
 207    5:00   75.2    17    5.3    46      7.6   928.8    0.00       1    82.5
 207    5:10   75.5    17    3.2    36      5.9   928.8    0.00       3    82.4
 207    5:20   75.8    17    2.5    78      3.9   928.9    0.00       6    82.3
 207    5:30   75.6    16    2.3   108      2.8   929.0    0.00      11    82.2
 207    5:40   76.1    16    1.3   129      2.0   929.0    0.00      18    82.1
 207    5:50   76.7    16    2.1    60      6.6   929.2    0.00      25    82.0
 207    6:00   75.3    18    3.4    42      5.5   929.2    0.00      29    81.8
 207    6:10   75.1    18    3.2    61      5.0   929.2    0.00      36    81.7
 207    6:20   76.4    16    1.9    91      2.8   929.2    0.00     167    81.6
 207    6:30   78.0    16    1.1   147      1.8   929.4    0.00     227    81.4
 207    6:40   78.0    15    1.0   221      1.4   929.5    0.00     268    81.3
 207    6:50   79.0    15    0.0   227      0.2   929.6    0.00     306    81.2
 207    7:00   80.8    15    0.2    68      1.3   929.6    0.00     344    81.2
 207    7:10   81.0    20    1.6    52      5.6   929.6    0.00     392    81.1
 207    7:20   79.5    21    3.5    58      5.3   929.7    0.00     433    81.0
 207    7:30   79.2    21    0.8    31      2.7   929.7    0.00     455    81.0
 207    7:40   79.4    20    0.3   238      1.1   929.7    0.00     506    81.0
 207    7:50   78.9    22    1.4   196      2.5   929.8    0.00     540    81.2
 207    8:00   77.7    21    1.0   258      1.7   929.8    0.00     577    81.2
 207    8:10   77.3    23    0.9   266      1.8   929.9    0.00     609    81.2
 207    8:20   77.6    25    1.9   202      3.2   929.9    0.00     646    81.4
 207    8:30   78.1    24    2.0   194      4.7   930.0    0.00     683    81.5
 207    8:40   78.4    23    3.6   183      6.2   930.0    0.00     716    81.6

Return to Highlands Peak graphs page.


Western Regional Climate Center,wrcc@dri.edu